createdAt,value
2018-12-06T08:32:11.797Z,42.40
2018-12-06T08:33:11.775Z,39.90
2018-12-06T08:34:11.774Z,39.50
2018-12-06T08:35:11.756Z,41.00
2018-12-06T08:36:11.744Z,41.70
2018-12-06T08:37:11.730Z,40.10
2018-12-06T08:38:12.376Z,39.10
2018-12-06T08:39:11.719Z,40.30
2018-12-06T08:40:11.696Z,40.10
2018-12-06T08:41:11.685Z,38.00
2018-12-06T08:42:11.678Z,38.40
2018-12-06T08:43:11.673Z,38.20
2018-12-06T08:44:11.680Z,38.80
2018-12-06T08:45:11.659Z,36.20
2018-12-06T08:46:11.636Z,39.50
2018-12-06T08:47:11.618Z,39.00
2018-12-06T08:48:11.635Z,37.90
2018-12-06T08:49:11.612Z,39.90
2018-12-06T08:50:11.612Z,43.20
2018-12-06T08:51:11.572Z,38.00
2018-12-06T08:52:11.560Z,37.90
2018-12-06T08:53:11.579Z,40.80
2018-12-06T08:54:11.628Z,37.10
2018-12-06T08:55:11.549Z,36.50
2018-12-06T08:56:11.541Z,37.80
2018-12-06T08:57:11.542Z,38.20
2018-12-06T08:58:11.493Z,36.20
2018-12-06T08:59:11.497Z,36.00
2018-12-06T09:00:11.479Z,37.70
2018-12-06T09:01:11.466Z,36.80
2018-12-06T09:02:11.450Z,36.60
2018-12-06T09:03:11.443Z,39.20
2018-12-06T09:04:11.440Z,36.20
2018-12-06T09:05:11.439Z,35.10
2018-12-06T09:06:11.405Z,36.40
2018-12-06T09:07:11.392Z,36.60
2018-12-06T09:08:11.384Z,35.40
2018-12-06T09:09:11.381Z,34.10
2018-12-06T09:10:11.374Z,32.90
2018-12-06T09:11:11.360Z,34.40
2018-12-06T09:12:11.358Z,32.80
2018-12-06T09:13:11.338Z,32.60
2018-12-06T09:14:11.328Z,32.20
2018-12-06T09:15:11.305Z,33.00
2018-12-06T09:16:11.293Z,32.20
2018-12-06T09:17:11.289Z,32.80
2018-12-06T09:18:11.271Z,31.90
2018-12-06T09:19:11.277Z,32.90
2018-12-06T09:20:11.248Z,32.50
2018-12-06T09:21:11.245Z,32.00
2018-12-06T09:22:11.232Z,33.00
2018-12-06T09:23:11.214Z,33.10
2018-12-06T09:24:11.220Z,30.20
2018-12-06T09:25:11.206Z,29.40
2018-12-06T09:26:11.181Z,28.20
2018-12-06T09:27:11.171Z,29.80
2018-12-06T09:28:11.168Z,29.50
2018-12-06T09:29:11.174Z,29.20
2018-12-06T09:30:11.136Z,29.40
2018-12-06T09:31:11.126Z,28.10
2018-12-06T09:32:11.113Z,28.20
2018-12-06T09:33:11.103Z,29.50
2018-12-06T09:34:11.103Z,29.70
2018-12-06T09:35:11.102Z,27.70
2018-12-06T09:36:11.069Z,29.20
2018-12-06T09:37:11.061Z,28.60
2018-12-06T09:38:11.050Z,28.40
2018-12-06T09:39:11.089Z,28.50
2018-12-06T09:40:11.025Z,27.50
2018-12-06T09:41:11.013Z,26.50
2018-12-06T09:42:11.007Z,24.90
2018-12-06T09:43:11.018Z,25.80
2018-12-06T09:44:11.001Z,27.50
2018-12-06T09:45:10.979Z,24.50
2018-12-06T09:46:10.963Z,24.60
2018-12-06T09:47:10.945Z,24.10
2018-12-06T09:48:10.941Z,24.60
2018-12-06T09:49:10.940Z,27.40
2018-12-06T09:50:10.919Z,24.10
2018-12-06T09:51:10.898Z,23.80
2018-12-06T09:52:10.888Z,25.40
2018-12-06T09:53:10.877Z,24.70
2018-12-06T09:54:10.867Z,25.10
2018-12-06T09:55:10.864Z,22.80
2018-12-06T09:56:10.841Z,23.80
2018-12-06T09:57:10.831Z,22.30
2018-12-06T09:58:10.825Z,23.20
2018-12-06T09:59:10.815Z,21.80
2018-12-06T10:00:10.824Z,23.30
2018-12-06T10:01:10.796Z,25.30
2018-12-06T10:02:10.772Z,22.90
2018-12-06T10:03:10.770Z,23.60
2018-12-06T10:04:10.779Z,24.80
2018-12-06T10:05:10.756Z,23.80
2018-12-06T10:06:10.730Z,25.90
2018-12-06T10:07:10.715Z,23.50
2018-12-06T10:08:10.721Z,24.30
2018-12-06T10:09:10.695Z,23.90
2018-12-06T10:10:10.691Z,23.90
2018-12-06T10:11:10.675Z,25.10
2018-12-06T10:12:10.665Z,25.40
2018-12-06T10:13:10.647Z,25.00
2018-12-06T10:14:10.663Z,25.80
2018-12-06T10:15:10.695Z,24.40
2018-12-06T10:16:10.640Z,25.60
2018-12-06T10:17:10.603Z,24.90
2018-12-06T10:18:10.592Z,27.40
2018-12-06T10:19:10.586Z,24.40
2018-12-06T10:20:10.591Z,26.00
2018-12-06T10:21:10.570Z,26.90
2018-12-06T10:22:10.562Z,30.30
2018-12-06T10:23:10.534Z,25.00
2018-12-06T10:24:10.525Z,25.10
2018-12-06T10:25:10.523Z,26.10
2018-12-06T10:26:10.518Z,24.70
2018-12-06T10:27:10.488Z,23.30
2018-12-06T10:28:10.480Z,28.80
2018-12-06T10:29:10.473Z,23.90
2018-12-06T10:30:10.466Z,25.90
2018-12-06T10:31:10.446Z,27.70
2018-12-06T10:32:10.440Z,24.20
2018-12-06T10:33:10.419Z,24.70
2018-12-06T10:34:10.414Z,26.50
2018-12-06T10:35:10.414Z,25.90
2018-12-06T10:36:10.387Z,25.80
2018-12-06T10:37:10.385Z,23.10
2018-12-06T10:38:10.367Z,26.40
2018-12-06T10:39:10.350Z,25.30
2018-12-06T10:40:10.350Z,27.20
2018-12-06T10:43:28.056Z,25.90
2018-12-06T10:44:28.038Z,24.80
2018-12-06T10:45:28.038Z,27.50
2018-12-06T10:49:54.940Z,32.70
2018-12-06T10:50:54.697Z,30.30
2018-12-06T10:51:54.677Z,31.10
2018-12-06T10:52:54.663Z,26.60
2018-12-06T10:53:54.650Z,26.40
2018-12-06T10:54:54.640Z,29.80
2018-12-06T10:55:54.642Z,27.40
2018-12-06T10:56:54.712Z,27.50
2018-12-06T10:57:54.604Z,26.30
2018-12-06T10:58:54.606Z,27.70
2018-12-06T10:59:54.585Z,28.30
2018-12-06T11:00:57.421Z,28.20
2018-12-06T11:04:12.263Z,24.20
2018-12-06T11:05:12.251Z,26.50
2018-12-06T11:06:12.253Z,26.90
2018-12-06T11:07:12.229Z,27.90
2018-12-06T11:08:12.219Z,29.10
2018-12-06T11:09:12.208Z,27.10
2018-12-06T11:10:12.196Z,29.30
2018-12-06T11:11:12.514Z,28.90
2018-12-06T11:12:12.194Z,26.80
2018-12-06T11:13:12.184Z,25.00
2018-12-06T11:14:12.167Z,25.20
2018-12-06T11:15:12.137Z,24.50
2018-12-06T11:16:12.146Z,27.50
2018-12-06T11:17:12.120Z,27.50
2018-12-06T11:18:12.103Z,27.70
2018-12-06T11:19:12.107Z,27.20
2018-12-06T11:20:12.083Z,27.80
2018-12-06T11:21:12.082Z,26.80
2018-12-06T11:22:12.062Z,26.00
2018-12-06T11:23:12.056Z,24.40
2018-12-06T11:25:42.012Z,25.00
2018-12-06T11:26:20.760Z,26.40
2018-12-06T11:27:20.738Z,28.50
2018-12-06T11:28:20.754Z,23.70
2018-12-06T11:29:20.719Z,25.10
2018-12-06T11:30:20.711Z,23.40
2018-12-06T11:33:30.396Z,19.00
2018-12-06T11:34:30.387Z,20.90
2018-12-06T11:35:30.374Z,21.70
2018-12-06T11:36:30.378Z,20.90
2018-12-06T11:37:30.354Z,21.20
2018-12-06T11:40:06.289Z,18.10
2018-12-06T11:40:38.549Z,19.30
2018-12-06T11:41:42.974Z,20.60
2018-12-06T11:42:38.524Z,21.20
2018-12-06T11:43:38.520Z,20.40
2018-12-06T11:44:38.517Z,21.90
2018-12-06T11:45:38.531Z,20.50
2018-12-06T11:46:38.510Z,19.50
2018-12-06T11:47:38.470Z,20.70
2018-12-06T11:48:38.464Z,19.80
2018-12-06T11:49:38.451Z,18.30
2018-12-06T11:50:38.453Z,19.60
2018-12-06T11:51:38.440Z,19.70
2018-12-06T11:52:38.429Z,18.60
2018-12-06T11:53:38.401Z,20.10
2018-12-06T11:54:38.455Z,17.50
2018-12-06T11:55:38.386Z,18.50
2018-12-06T11:58:13.343Z,17.70
2018-12-06T12:01:03.007Z,16.90
2018-12-06T12:02:09.725Z,18.00
2018-12-06T12:03:03.980Z,19.10
2018-12-06T12:04:02.973Z,19.80
2018-12-06T12:05:02.956Z,18.60
2018-12-06T12:07:34.434Z,16.00
2018-12-06T12:08:11.658Z,17.20
2018-12-06T12:09:11.674Z,18.00
2018-12-06T12:10:11.659Z,18.30
2018-12-06T12:11:11.623Z,17.20
2018-12-06T12:12:11.625Z,18.10
2018-12-06T12:13:11.599Z,18.20
2018-12-06T12:14:11.596Z,19.40
2018-12-06T12:15:11.577Z,17.50
2018-12-06T12:16:11.570Z,19.00
2018-12-06T12:17:11.566Z,18.40
2018-12-06T12:18:11.542Z,17.40
2018-12-06T12:19:11.534Z,17.40
2018-12-06T12:20:11.528Z,17.40
2018-12-06T12:21:11.532Z,17.90
2018-12-06T12:22:11.522Z,18.50
2018-12-06T12:23:11.489Z,17.80
2018-12-06T12:24:11.477Z,19.00
2018-12-06T12:25:11.466Z,18.50
2018-12-06T12:26:11.491Z,19.90
2018-12-06T12:27:11.465Z,19.70
2018-12-06T12:28:11.507Z,18.40
2018-12-06T12:29:11.421Z,19.00
2018-12-06T12:30:11.437Z,19.50
2018-12-06T12:31:11.404Z,19.30
2018-12-06T12:32:11.428Z,19.30
2018-12-06T12:33:11.375Z,19.00
2018-12-06T12:34:11.365Z,19.00
2018-12-06T12:35:11.357Z,18.80
2018-12-06T12:36:11.346Z,19.30
2018-12-06T12:37:11.344Z,19.30
2018-12-06T12:38:11.324Z,18.50
2018-12-06T12:39:11.309Z,19.00
2018-12-06T12:40:11.300Z,18.60
2018-12-06T12:41:11.302Z,19.70
2018-12-06T12:42:11.302Z,19.30
2018-12-06T12:43:11.278Z,19.70
2018-12-06T12:44:11.261Z,19.60
2018-12-06T12:45:11.246Z,21.40
2018-12-06T12:46:11.236Z,19.40
2018-12-06T12:47:11.218Z,18.70
2018-12-06T12:48:11.225Z,19.40
2018-12-06T12:49:11.215Z,19.70
2018-12-06T12:50:11.186Z,20.10
2018-12-06T12:51:11.183Z,20.40
2018-12-06T12:52:11.169Z,18.40
2018-12-06T12:53:11.172Z,20.40
2018-12-06T12:56:44.077Z,16.00
2018-12-06T12:57:28.833Z,17.90
2018-12-06T12:58:28.812Z,19.50
2018-12-06T12:59:28.798Z,18.80
2018-12-06T13:00:28.801Z,19.70
2018-12-06T13:01:29.572Z,20.10
2018-12-06T13:03:37.481Z,17.70
2018-12-06T13:04:37.462Z,20.00
2018-12-06T13:05:37.470Z,21.20
2018-12-06T13:06:37.443Z,21.80
2018-12-06T13:07:37.449Z,19.10
2018-12-06T13:08:37.450Z,20.20
2018-12-06T13:09:37.405Z,18.70
2018-12-06T13:10:37.408Z,22.00
2018-12-06T13:13:55.060Z,21.90
2018-12-06T13:16:24.795Z,20.60
2018-12-06T13:17:03.515Z,20.80
2018-12-06T13:18:03.514Z,21.40
2018-12-06T13:19:03.505Z,21.20
2018-12-06T13:21:12.448Z,17.90
2018-12-06T13:22:12.198Z,20.80
2018-12-06T13:23:12.212Z,20.00
2018-12-06T13:24:12.180Z,21.20
2018-12-06T13:25:12.189Z,21.40
2018-12-06T13:26:12.158Z,20.30
2018-12-06T13:27:12.156Z,21.20
2018-12-06T13:28:12.147Z,20.10
2018-12-06T13:29:12.136Z,20.70
2018-12-06T13:32:28.555Z,24.10
2018-12-06T13:33:28.808Z,22.30
2018-12-06T13:35:51.491Z,20.40
2018-12-06T13:36:36.736Z,19.90
2018-12-06T13:41:22.348Z,13.90
2018-12-06T14:39:08.856Z,12.50
2018-12-06T14:39:52.590Z,14.30
2018-12-06T14:40:52.580Z,16.70
2018-12-06T14:41:52.572Z,14.50
2018-12-06T14:42:52.573Z,15.40
2018-12-06T14:43:41.712Z,17.70
2018-12-06T14:44:41.711Z,20.50
2018-12-06T14:45:41.673Z,15.80
2018-12-06T14:46:41.663Z,13.30
2018-12-06T14:47:41.650Z,17.30
2018-12-06T14:48:41.643Z,15.70
2018-12-06T14:52:31.854Z,10.00
2018-12-06T14:52:59.043Z,12.70
2018-12-06T14:53:59.042Z,15.20
2018-12-06T14:54:59.031Z,15.50
2018-12-06T14:55:59.029Z,15.30
2018-12-06T14:59:16.712Z,12.20
2018-12-06T15:00:16.681Z,14.80
2018-12-06T15:01:16.676Z,14.30
2018-12-06T15:02:16.664Z,15.20
2018-12-06T15:05:34.339Z,18.20
2018-12-06T15:06:37.537Z,16.70
2018-12-06T15:09:19.032Z,14.40
2018-12-06T15:09:42.801Z,16.90
2018-12-06T15:10:42.774Z,15.80
2018-12-06T15:11:42.764Z,21.60
2018-12-06T15:12:42.749Z,17.00
2018-12-06T15:13:42.740Z,17.70
2018-12-06T15:14:42.747Z,16.20
2018-12-06T15:15:42.725Z,16.30
2018-12-06T15:16:42.709Z,18.00
2018-12-06T15:17:42.699Z,14.60
2018-12-06T15:18:42.687Z,16.00
2018-12-06T15:19:42.684Z,16.80
2018-12-06T15:20:42.661Z,16.30
2018-12-06T15:21:42.664Z,15.30
2018-12-06T15:25:29.611Z,15.20
2018-12-06T15:26:00.346Z,15.60
2018-12-06T15:27:00.338Z,14.70
2018-12-06T15:28:00.322Z,14.50
2018-12-06T15:29:00.321Z,16.50
2018-12-06T15:30:00.317Z,14.30
2018-12-06T15:31:00.291Z,14.80
2018-12-06T15:32:00.288Z,15.10
2018-12-06T15:33:00.272Z,15.50
2018-12-06T15:34:00.276Z,15.50
2018-12-06T15:35:00.315Z,16.10
2018-12-06T15:36:00.234Z,15.10
2018-12-06T15:37:00.227Z,14.30
2018-12-06T15:38:00.214Z,14.70
2018-12-06T15:40:30.662Z,17.00
